Amderma, Russia
Current Conditions -  °F | °C
As of 6:00 PM on Thursday 18 Dec 2014 (Local Time) from UUYY Reporting Station
Snow Showers Snow Showers  
Wind Chill: 23°   Ceiling: 1500
Heat Index: 32°   Visibility: 1.3mi
Dew Point: 30°   Wind: 11mph
Humidity: 93%   Direction: 210°SSW
Pressure: 29.32"   Gusts: 22mph
Location:  69.76°N, 61.67°E
Report Text: UUYY 181500Z 21005G10MPS 2200 -SHSN SCT007 BKN015CB OVC066 M00/M01 Q0993 TEMPO 0500 +SHSN 19590539 RMK QFE736/0981
Loading
Personal Weather Stations






























Interactive Weather Map New forecast layout! Learn more

10-Day Weather Forecast

Advertisements
Track Severe Weather on mobile